Earl Gonsoulin — WDC3306 — position and weather

sailwx.info

Track history (hours):
 
Tides and Currents Weather Stations Pressure Air Temp Water Temp Dewpoint Dewpoint Depression Visibility Wind Speed Wind Dir Waves Ship Positions

Earl Gonsoulin

Owner: LeBeouf Bros. Towing, L.L.C., Houma, LA. More information available from US FCC via Universal Licensing System and Coast Guard Vessel Documentation Center.

Last reported at 2017-Jul-23 18:00 UTC. Time now 2017-Jul-23 18:25 UTC.
Position N 30°05' W 093°20'.

Length 21 m; draft 3 m.

Type: Tug. MMSI: 367005550.

Date/timePositionNaut miles runAvg speedWind from/ knotsBaromVisibWave heightAir tempDewpointWater temp
2017-Jul-23 18:00N 30°05' W 093°20'0 0.0
2017-Jul-23 17:31N 30°05' W 093°20'0 0.0
2017-Jul-23 17:01N 30°05' W 093°20'0 0.0
2017-Jul-23 16:31N 30°05' W 093°20'0 0.0
2017-Jul-23 16:01N 30°05' W 093°20'0 0.0
2017-Jul-23 15:30N 30°05' W 093°20'0 0.0
2017-Jul-23 15:01N 30°05' W 093°20'1 1.6
2017-Jul-23 14:30N 30°04' W 093°20'1 1.7
2017-Jul-23 14:01N 30°05' W 093°20'4 7.2
2017-Jul-23 13:31N 30°09' W 093°20'3 7.0
2017-Jul-23 13:01N 30°12' W 093°18'3 6.1
2017-Jul-23 12:31N 30°14' W 093°15'0 0.1
2017-Jul-23 12:01N 30°14' W 093°15'0 0.0
2017-Jul-23 11:30N 30°14' W 093°15'0 0.0
2017-Jul-23 11:01N 30°14' W 093°15'0 0.0
2017-Jul-23 10:30N 30°14' W 093°15'0 0.0
2017-Jul-23 10:01N 30°14' W 093°15'0 0.0
2017-Jul-23 09:31N 30°14' W 093°15'0 0.0
2017-Jul-23 09:00N 30°14' W 093°15'0 0.0
2017-Jul-23 08:30N 30°14' W 093°15'0 0.0
2017-Jul-23 08:00N 30°14' W 093°15'0 0.0
2017-Jul-23 07:31N 30°14' W 093°15'0 0.0
2017-Jul-23 07:00N 30°14' W 093°15'0 0.0
2017-Jul-23 06:31N 30°14' W 093°15'0 0.0
2017-Jul-23 06:01N 30°14' W 093°15'0 0.0
2017-Jul-23 05:31N 30°14' W 093°15'0 0.0
2017-Jul-23 04:28N 30°14' W 093°15'0 0.0
2017-Jul-23 04:00N 30°14' W 093°15'0 0.0
2017-Jul-23 03:30N 30°14' W 093°15'0 0.0
2017-Jul-23 03:00N 30°14' W 093°15'0 0.0
2017-Jul-23 02:30N 30°14' W 093°15'0 0.0
2017-Jul-23 02:00N 30°14' W 093°15'0 0.0
2017-Jul-23 01:31N 30°14' W 093°15'0 0.0
2017-Jul-23 01:00N 30°14' W 093°15'0 0.0
2017-Jul-23 00:31N 30°14' W 093°15'0 0.0
2017-Jul-23 00:00N 30°14' W 093°15'1 1.1
2017-Jul-22 23:30N 30°13' W 093°16'1 2.9
2017-Jul-22 23:00N 30°12' W 093°17'3 5.9
2017-Jul-22 22:31N 30°10' W 093°19'3 5.8
2017-Jul-22 22:01N 30°07' W 093°20'3 5.3
2017-Jul-22 21:31N 30°05' W 093°20'2 3.5
2017-Jul-22 21:01N 30°04' W 093°21'1 1.5
2017-Jul-22 20:30N 30°04' W 093°22'2 4.4
2017-Jul-22 20:01N 30°04' W 093°25'3 5.2
2017-Jul-22 19:30N 30°04' W 093°28'3 5.3
2017-Jul-22 19:00N 30°04' W 093°31'3 5.3
2017-Jul-22 18:29N 30°04' W 093°34'76 4.1
2017-Jul-21 23:48N 29°34' W 094°55'3 7.8
2017-Jul-21 23:27N 29°36' W 094°57'  
2017-Jul-16 05:54N 29°32' W 094°54'3 7.9
2017-Jul-16 05:30N 29°35' W 094°56'4 7.9
2017-Jul-16 05:00N 29°39' W 094°58'3 0.1
2017-Jul-14 22:29N 29°42' W 094°59'4 6.8
2017-Jul-14 21:54N 29°38' W 094°58'79 4.5
2017-Jul-14 04:15N 30°04' W 093°31'2 5.1
2017-Jul-14 03:51N 30°04' W 093°29'2 5.1
2017-Jul-14 03:30N 30°04' W 093°27'3 5.1
2017-Jul-14 03:00N 30°04' W 093°24'2 4.5
2017-Jul-14 02:31N 30°04' W 093°21'2 3.5
2017-Jul-14 02:01N 30°05' W 093°20'2 3.4
2017-Jul-14 01:31N 30°07' W 093°20'1 2.7
2017-Jul-14 01:01N 30°08' W 093°20'1 1.4
2017-Jul-14 00:30N 30°08' W 093°19'0 0.0
2017-Jul-14 00:01N 30°08' W 093°19'0 0.0
2017-Jul-13 23:31N 30°08' W 093°19'0 0.0
2017-Jul-13 23:00N 30°08' W 093°19'0 0.0
2017-Jul-13 22:30N 30°08' W 093°19'0 0.0
2017-Jul-13 22:01N 30°08' W 093°19'0 0.0
2017-Jul-13 21:31N 30°08' W 093°19'0 0.0
2017-Jul-13 21:00N 30°08' W 093°19'0 0.0
2017-Jul-13 20:31N 30°08' W 093°19'0 0.0
2017-Jul-13 20:01N 30°08' W 093°19'0 0.0
2017-Jul-13 19:31N 30°08' W 093°19'0 0.0
2017-Jul-13 19:00N 30°08' W 093°19'0 0.0
2017-Jul-13 18:30N 30°08' W 093°19'0 0.0
2017-Jul-13 18:00N 30°08' W 093°19'  
Track history (hours):
 
Tides and Currents Weather Stations Pressure Air Temp Water Temp Dewpoint Dewpoint Depression Visibility Wind Speed Wind Dir Waves Ship Positions

Earl Gonsoulin

Owner: LeBeouf Bros. Towing, L.L.C., Houma, LA. More information available from US FCC via Universal Licensing System and Coast Guard Vessel Documentation Center.

Last reported at 2017-Jul-23 18:00 UTC. Time now 2017-Jul-23 18:25 UTC.
Position N 30°05' W 093°20'.

Length 21 m; draft 3 m.

Type: Tug. MMSI: 367005550.

Date/timePositionNaut miles runAvg speedWind from/ knotsBaromVisibWave heightAir tempDewpointWater temp
2017-Jul-23 18:00N 30°05' W 093°20'0 0.0
2017-Jul-23 17:31N 30°05' W 093°20'0 0.0
2017-Jul-23 17:01N 30°05' W 093°20'0 0.0
2017-Jul-23 16:31N 30°05' W 093°20'0 0.0
2017-Jul-23 16:01N 30°05' W 093°20'0 0.0
2017-Jul-23 15:30N 30°05' W 093°20'0 0.0
2017-Jul-23 15:01N 30°05' W 093°20'1 1.6
2017-Jul-23 14:30N 30°04' W 093°20'1 1.7
2017-Jul-23 14:01N 30°05' W 093°20'4 7.2
2017-Jul-23 13:31N 30°09' W 093°20'3 7.0
2017-Jul-23 13:01N 30°12' W 093°18'3 6.1
2017-Jul-23 12:31N 30°14' W 093°15'0 0.1
2017-Jul-23 12:01N 30°14' W 093°15'0 0.0
2017-Jul-23 11:30N 30°14' W 093°15'0 0.0
2017-Jul-23 11:01N 30°14' W 093°15'0 0.0
2017-Jul-23 10:30N 30°14' W 093°15'0 0.0
2017-Jul-23 10:01N 30°14' W 093°15'0 0.0
2017-Jul-23 09:31N 30°14' W 093°15'0 0.0
2017-Jul-23 09:00N 30°14' W 093°15'0 0.0
2017-Jul-23 08:30N 30°14' W 093°15'0 0.0
2017-Jul-23 08:00N 30°14' W 093°15'0 0.0
2017-Jul-23 07:31N 30°14' W 093°15'0 0.0
2017-Jul-23 07:00N 30°14' W 093°15'0 0.0
2017-Jul-23 06:31N 30°14' W 093°15'0 0.0
2017-Jul-23 06:01N 30°14' W 093°15'0 0.0
2017-Jul-23 05:31N 30°14' W 093°15'0 0.0
2017-Jul-23 04:28N 30°14' W 093°15'0 0.0
2017-Jul-23 04:00N 30°14' W 093°15'0 0.0
2017-Jul-23 03:30N 30°14' W 093°15'0 0.0
2017-Jul-23 03:00N 30°14' W 093°15'0 0.0
2017-Jul-23 02:30N 30°14' W 093°15'0 0.0
2017-Jul-23 02:00N 30°14' W 093°15'0 0.0
2017-Jul-23 01:31N 30°14' W 093°15'0 0.0
2017-Jul-23 01:00N 30°14' W 093°15'0 0.0
2017-Jul-23 00:31N 30°14' W 093°15'0 0.0
2017-Jul-23 00:00N 30°14' W 093°15'1 1.1
2017-Jul-22 23:30N 30°13' W 093°16'1 2.9
2017-Jul-22 23:00N 30°12' W 093°17'3 5.9
2017-Jul-22 22:31N 30°10' W 093°19'3 5.8
2017-Jul-22 22:01N 30°07' W 093°20'3 5.3
2017-Jul-22 21:31N 30°05' W 093°20'2 3.5
2017-Jul-22 21:01N 30°04' W 093°21'1 1.5
2017-Jul-22 20:30N 30°04' W 093°22'2 4.4
2017-Jul-22 20:01N 30°04' W 093°25'3 5.2
2017-Jul-22 19:30N 30°04' W 093°28'3 5.3
2017-Jul-22 19:00N 30°04' W 093°31'3 5.3
2017-Jul-22 18:29N 30°04' W 093°34'76 4.1
2017-Jul-21 23:48N 29°34' W 094°55'3 7.8
2017-Jul-21 23:27N 29°36' W 094°57'  
2017-Jul-16 05:54N 29°32' W 094°54'3 7.9
2017-Jul-16 05:30N 29°35' W 094°56'4 7.9
2017-Jul-16 05:00N 29°39' W 094°58'3 0.1
2017-Jul-14 22:29N 29°42' W 094°59'4 6.8
2017-Jul-14 21:54N 29°38' W 094°58'79 4.5
2017-Jul-14 04:15N 30°04' W 093°31'2 5.1
2017-Jul-14 03:51N 30°04' W 093°29'2 5.1
2017-Jul-14 03:30N 30°04' W 093°27'3 5.1
2017-Jul-14 03:00N 30°04' W 093°24'2 4.5
2017-Jul-14 02:31N 30°04' W 093°21'2 3.5
2017-Jul-14 02:01N 30°05' W 093°20'2 3.4
2017-Jul-14 01:31N 30°07' W 093°20'1 2.7
2017-Jul-14 01:01N 30°08' W 093°20'1 1.4
2017-Jul-14 00:30N 30°08' W 093°19'0 0.0
2017-Jul-14 00:01N 30°08' W 093°19'0 0.0
2017-Jul-13 23:31N 30°08' W 093°19'0 0.0
2017-Jul-13 23:00N 30°08' W 093°19'0 0.0
2017-Jul-13 22:30N 30°08' W 093°19'0 0.0
2017-Jul-13 22:01N 30°08' W 093°19'0 0.0
2017-Jul-13 21:31N 30°08' W 093°19'0 0.0
2017-Jul-13 21:00N 30°08' W 093°19'0 0.0
2017-Jul-13 20:31N 30°08' W 093°19'0 0.0
2017-Jul-13 20:01N 30°08' W 093°19'0 0.0
2017-Jul-13 19:31N 30°08' W 093°19'0 0.0
2017-Jul-13 19:00N 30°08' W 093°19'0 0.0
2017-Jul-13 18:30N 30°08' W 093°19'0 0.0
2017-Jul-13 18:00N 30°08' W 093°19'  

Dump ship's entire track history